sensor_id;sensor_type;location;lat;lon;timestamp;P1;durP1;ratioP1;P2;durP2;ratioP2
22660;SDS011;11497;52.222;21.246;2023-02-22T00:01:54;11.85;;;4.97;;
22660;SDS011;11497;52.222;21.246;2023-02-22T00:04:39;14.05;;;5.15;;
22660;SDS011;11497;52.222;21.246;2023-02-22T00:07:07;18.90;;;5.43;;
22660;SDS011;11497;52.222;21.246;2023-02-22T00:09:35;22.63;;;5.35;;
22660;SDS011;11497;52.222;21.246;2023-02-22T00:12:03;10.32;;;4.43;;
22660;SDS011;11497;52.222;21.246;2023-02-22T00:14:31;15.60;;;4.70;;
22660;SDS011;11497;52.222;21.246;2023-02-22T00:16:59;14.32;;;4.75;;
22660;SDS011;11497;52.222;21.246;2023-02-22T00:19:28;14.52;;;4.22;;
22660;SDS011;11497;52.222;21.246;2023-02-22T00:21:56;16.15;;;4.85;;
22660;SDS011;11497;52.222;21.246;2023-02-22T00:24:24;15.70;;;4.15;;
22660;SDS011;11497;52.222;21.246;2023-02-22T00:26:54;16.15;;;4.40;;
22660;SDS011;11497;52.222;21.246;2023-02-22T00:29:23;11.60;;;4.63;;
22660;SDS011;11497;52.222;21.246;2023-02-22T00:31:51;14.38;;;4.82;;
22660;SDS011;11497;52.222;21.246;2023-02-22T00:34:20;17.23;;;5.03;;
22660;SDS011;11497;52.222;21.246;2023-02-22T00:36:49;11.45;;;4.47;;
22660;SDS011;11497;52.222;21.246;2023-02-22T00:39:17;13.77;;;4.90;;
22660;SDS011;11497;52.222;21.246;2023-02-22T00:41:45;21.65;;;5.93;;
22660;SDS011;11497;52.222;21.246;2023-02-22T00:44:13;12.20;;;4.85;;
22660;SDS011;11497;52.222;21.246;2023-02-22T00:46:41;18.50;;;5.57;;
22660;SDS011;11497;52.222;21.246;2023-02-22T00:49:09;17.15;;;5.82;;
22660;SDS011;11497;52.222;21.246;2023-02-22T00:51:37;17.70;;;5.38;;
22660;SDS011;11497;52.222;21.246;2023-02-22T00:54:05;20.13;;;6.78;;
22660;SDS011;11497;52.222;21.246;2023-02-22T00:56:34;16.23;;;6.20;;
22660;SDS011;11497;52.222;21.246;2023-02-22T00:59:03;18.27;;;6.32;;
22660;SDS011;11497;52.222;21.246;2023-02-22T01:01:31;17.48;;;6.38;;
22660;SDS011;11497;52.222;21.246;2023-02-22T01:03:59;14.27;;;6.10;;
22660;SDS011;11497;52.222;21.246;2023-02-22T01:06:27;17.48;;;5.70;;
22660;SDS011;11497;52.222;21.246;2023-02-22T01:08:57;20.65;;;5.68;;
22660;SDS011;11497;52.222;21.246;2023-02-22T01:11:25;15.73;;;5.65;;
22660;SDS011;11497;52.222;21.246;2023-02-22T01:13:53;17.80;;;5.70;;
22660;SDS011;11497;52.222;21.246;2023-02-22T01:16:22;19.80;;;6.30;;
22660;SDS011;11497;52.222;21.246;2023-02-22T01:18:50;18.50;;;5.68;;
22660;SDS011;11497;52.222;21.246;2023-02-22T01:21:18;15.25;;;6.07;;
22660;SDS011;11497;52.222;21.246;2023-02-22T01:23:46;13.82;;;5.72;;
22660;SDS011;11497;52.222;21.246;2023-02-22T01:26:14;20.27;;;5.60;;
22660;SDS011;11497;52.222;21.246;2023-02-22T01:28:42;20.23;;;5.72;;
22660;SDS011;11497;52.222;21.246;2023-02-22T01:31:09;20.63;;;6.03;;
22660;SDS011;11497;52.222;21.246;2023-02-22T01:33:39;16.42;;;6.72;;
22660;SDS011;11497;52.222;21.246;2023-02-22T01:36:07;23.25;;;6.03;;
22660;SDS011;11497;52.222;21.246;2023-02-22T01:38:37;20.08;;;5.80;;
22660;SDS011;11497;52.222;21.246;2023-02-22T01:41:05;16.77;;;5.60;;
22660;SDS011;11497;52.222;21.246;2023-02-22T01:43:35;22.27;;;6.65;;
22660;SDS011;11497;52.222;21.246;2023-02-22T01:46:18;14.80;;;5.65;;
22660;SDS011;11497;52.222;21.246;2023-02-22T01:49:00;16.50;;;5.70;;
22660;SDS011;11497;52.222;21.246;2023-02-22T01:51:33;17.80;;;5.60;;
22660;SDS011;11497;52.222;21.246;2023-02-22T01:54:15;11.32;;;4.95;;
22660;SDS011;11497;52.222;21.246;2023-02-22T01:56:50;19.05;;;5.13;;
22660;SDS011;11497;52.222;21.246;2023-02-22T01:59:54;16.67;;;5.47;;
22660;SDS011;11497;52.222;21.246;2023-02-22T02:02:26;19.83;;;6.13;;
22660;SDS011;11497;52.222;21.246;2023-02-22T02:04:55;18.02;;;5.45;;
22660;SDS011;11497;52.222;21.246;2023-02-22T02:07:25;18.85;;;6.22;;
22660;SDS011;11497;52.222;21.246;2023-02-22T02:09:59;19.40;;;5.65;;
22660;SDS011;11497;52.222;21.246;2023-02-22T02:12:33;18.08;;;5.07;;
22660;SDS011;11497;52.222;21.246;2023-02-22T02:15:15;19.20;;;6.40;;
22660;SDS011;11497;52.222;21.246;2023-02-22T02:18:03;15.07;;;6.38;;
22660;SDS011;11497;52.222;21.246;2023-02-22T02:42:42;19.00;;;5.93;;
22660;SDS011;11497;52.222;21.246;2023-02-22T02:45:28;13.25;;;5.65;;
22660;SDS011;11497;52.222;21.246;2023-02-22T02:48:14;15.55;;;4.88;;
22660;SDS011;11497;52.222;21.246;2023-02-22T02:50:47;15.80;;;5.23;;
22660;SDS011;11497;52.222;21.246;2023-02-22T02:53:18;14.95;;;5.60;;
22660;SDS011;11497;52.222;21.246;2023-02-22T02:55:51;12.88;;;5.75;;
22660;SDS011;11497;52.222;21.246;2023-02-22T02:58:21;19.98;;;5.50;;
22660;SDS011;11497;52.222;21.246;2023-02-22T03:00:50;13.50;;;5.00;;
22660;SDS011;11497;52.222;21.246;2023-02-22T03:03:26;12.15;;;4.78;;
22660;SDS011;11497;52.222;21.246;2023-02-22T03:14:51;9.27;;;4.65;;
22660;SDS011;11497;52.222;21.246;2023-02-22T03:23:08;14.65;;;4.40;;
22660;SDS011;11497;52.222;21.246;2023-02-22T03:25:58;9.93;;;4.28;;
22660;SDS011;11497;52.222;21.246;2023-02-22T03:28:36;13.43;;;4.32;;
22660;SDS011;11497;52.222;21.246;2023-02-22T03:31:11;16.23;;;4.45;;
22660;SDS011;11497;52.222;21.246;2023-02-22T03:34:07;10.65;;;4.53;;
22660;SDS011;11497;52.222;21.246;2023-02-22T03:36:37;15.48;;;3.97;;
22660;SDS011;11497;52.222;21.246;2023-02-22T03:39:17;8.90;;;4.13;;
22660;SDS011;11497;52.222;21.246;2023-02-22T03:41:47;10.20;;;3.78;;
22660;SDS011;11497;52.222;21.246;2023-02-22T03:44:23;9.25;;;4.38;;
22660;SDS011;11497;52.222;21.246;2023-02-22T03:46:55;9.90;;;3.80;;
22660;SDS011;11497;52.222;21.246;2023-02-22T03:49:31;8.07;;;3.92;;
22660;SDS011;11497;52.222;21.246;2023-02-22T03:54:31;9.38;;;3.40;;
22660;SDS011;11497;52.222;21.246;2023-02-22T03:57:13;6.78;;;3.90;;
22660;SDS011;11497;52.222;21.246;2023-02-22T04:00:00;11.00;;;3.70;;
22660;SDS011;11497;52.222;21.246;2023-02-22T04:02:39;6.07;;;3.17;;
22660;SDS011;11497;52.222;21.246;2023-02-22T04:05:12;4.32;;;3.17;;
22660;SDS011;11497;52.222;21.246;2023-02-22T04:08:31;6.68;;;3.70;;
22660;SDS011;11497;52.222;21.246;2023-02-22T04:11:05;7.03;;;3.88;;
22660;SDS011;11497;52.222;21.246;2023-02-22T04:13:33;7.95;;;3.65;;
22660;SDS011;11497;52.222;21.246;2023-02-22T04:16:01;7.22;;;3.72;;
22660;SDS011;11497;52.222;21.246;2023-02-22T04:18:30;7.15;;;3.47;;
22660;SDS011;11497;52.222;21.246;2023-02-22T04:20:59;7.43;;;4.05;;
22660;SDS011;11497;52.222;21.246;2023-02-22T04:23:35;5.55;;;3.70;;
22660;SDS011;11497;52.222;21.246;2023-02-22T04:26:04;4.45;;;3.33;;
22660;SDS011;11497;52.222;21.246;2023-02-22T04:28:31;5.93;;;3.17;;
22660;SDS011;11497;52.222;21.246;2023-02-22T04:31:14;4.35;;;2.88;;
22660;SDS011;11497;52.222;21.246;2023-02-22T04:33:43;5.80;;;3.28;;
22660;SDS011;11497;52.222;21.246;2023-02-22T04:36:14;3.53;;;2.95;;
22660;SDS011;11497;52.222;21.246;2023-02-22T04:38:44;4.05;;;2.70;;
22660;SDS011;11497;52.222;21.246;2023-02-22T04:41:12;4.78;;;3.08;;
22660;SDS011;11497;52.222;21.246;2023-02-22T04:43:40;3.60;;;2.47;;
22660;SDS011;11497;52.222;21.246;2023-02-22T04:46:20;4.22;;;2.65;;
22660;SDS011;11497;52.222;21.246;2023-02-22T04:48:50;4.25;;;2.50;;
22660;SDS011;11497;52.222;21.246;2023-02-22T04:51:21;3.28;;;2.70;;
22660;SDS011;11497;52.222;21.246;2023-02-22T04:53:55;6.10;;;3.00;;
22660;SDS011;11497;52.222;21.246;2023-02-22T04:56:24;3.42;;;2.70;;
22660;SDS011;11497;52.222;21.246;2023-02-22T04:58:51;5.28;;;2.70;;
22660;SDS011;11497;52.222;21.246;2023-02-22T05:01:19;5.38;;;2.70;;
22660;SDS011;11497;52.222;21.246;2023-02-22T05:03:49;4.10;;;2.90;;
22660;SDS011;11497;52.222;21.246;2023-02-22T05:06:17;3.33;;;2.40;;
22660;SDS011;11497;52.222;21.246;2023-02-22T05:08:45;3.35;;;2.55;;
22660;SDS011;11497;52.222;21.246;2023-02-22T05:11:13;3.05;;;2.75;;
22660;SDS011;11497;52.222;21.246;2023-02-22T05:13:41;4.78;;;3.00;;
22660;SDS011;11497;52.222;21.246;2023-02-22T05:16:09;3.15;;;2.60;;
22660;SDS011;11497;52.222;21.246;2023-02-22T05:18:37;5.57;;;2.95;;
22660;SDS011;11497;52.222;21.246;2023-02-22T05:21:05;3.97;;;2.55;;
22660;SDS011;11497;52.222;21.246;2023-02-22T05:23:34;2.85;;;2.42;;
22660;SDS011;11497;52.222;21.246;2023-02-22T05:26:02;4.50;;;2.80;;
22660;SDS011;11497;52.222;21.246;2023-02-22T05:28:32;4.10;;;2.90;;
22660;SDS011;11497;52.222;21.246;2023-02-22T05:31:00;3.75;;;2.65;;
22660;SDS011;11497;52.222;21.246;2023-02-22T05:33:28;5.70;;;2.63;;
22660;SDS011;11497;52.222;21.246;2023-02-22T05:35:55;4.05;;;2.80;;
22660;SDS011;11497;52.222;21.246;2023-02-22T05:38:23;4.88;;;3.58;;
22660;SDS011;11497;52.222;21.246;2023-02-22T05:40:51;6.30;;;3.65;;
22660;SDS011;11497;52.222;21.246;2023-02-22T05:43:19;5.57;;;3.53;;
22660;SDS011;11497;52.222;21.246;2023-02-22T05:45:47;5.97;;;3.13;;
22660;SDS011;11497;52.222;21.246;2023-02-22T05:48:15;5.80;;;3.13;;
22660;SDS011;11497;52.222;21.246;2023-02-22T05:50:43;3.30;;;2.50;;
22660;SDS011;11497;52.222;21.246;2023-02-22T05:53:11;3.97;;;2.95;;
22660;SDS011;11497;52.222;21.246;2023-02-22T05:55:39;3.53;;;2.90;;
22660;SDS011;11497;52.222;21.246;2023-02-22T05:58:07;5.30;;;3.17;;
22660;SDS011;11497;52.222;21.246;2023-02-22T06:00:35;4.10;;;3.15;;
22660;SDS011;11497;52.222;21.246;2023-02-22T06:03:04;5.32;;;3.42;;
22660;SDS011;11497;52.222;21.246;2023-02-22T06:05:34;5.50;;;3.15;;
22660;SDS011;11497;52.222;21.246;2023-02-22T06:08:04;6.22;;;3.08;;
22660;SDS011;11497;52.222;21.246;2023-02-22T06:10:32;4.90;;;3.10;;
22660;SDS011;11497;52.222;21.246;2023-02-22T06:13:01;6.00;;;3.22;;
22660;SDS011;11497;52.222;21.246;2023-02-22T06:15:31;4.90;;;3.17;;
22660;SDS011;11497;52.222;21.246;2023-02-22T06:17:59;6.43;;;3.38;;
22660;SDS011;11497;52.222;21.246;2023-02-22T06:20:29;3.00;;;2.45;;
22660;SDS011;11497;52.222;21.246;2023-02-22T06:22:57;6.05;;;3.40;;
22660;SDS011;11497;52.222;21.246;2023-02-22T06:25:26;5.70;;;3.70;;
22660;SDS011;11497;52.222;21.246;2023-02-22T06:27:58;6.80;;;3.50;;
22660;SDS011;11497;52.222;21.246;2023-02-22T06:30:27;10.90;;;4.85;;
22660;SDS011;11497;52.222;21.246;2023-02-22T06:32:56;7.63;;;4.25;;
22660;SDS011;11497;52.222;21.246;2023-02-22T06:35:24;13.02;;;5.22;;
22660;SDS011;11497;52.222;21.246;2023-02-22T06:37:52;10.02;;;4.65;;
22660;SDS011;11497;52.222;21.246;2023-02-22T06:40:20;6.38;;;3.92;;
22660;SDS011;11497;52.222;21.246;2023-02-22T06:42:47;6.22;;;3.38;;
22660;SDS011;11497;52.222;21.246;2023-02-22T06:45:16;6.22;;;3.65;;
22660;SDS011;11497;52.222;21.246;2023-02-22T06:47:44;5.28;;;3.10;;
22660;SDS011;11497;52.222;21.246;2023-02-22T06:50:23;7.35;;;2.97;;
22660;SDS011;11497;52.222;21.246;2023-02-22T06:52:55;6.00;;;3.05;;
22660;SDS011;11497;52.222;21.246;2023-02-22T06:55:25;5.70;;;2.83;;
22660;SDS011;11497;52.222;21.246;2023-02-22T06:57:54;6.10;;;2.78;;
22660;SDS011;11497;52.222;21.246;2023-02-22T07:00:23;4.68;;;2.80;;
22660;SDS011;11497;52.222;21.246;2023-02-22T07:02:52;5.75;;;3.08;;
22660;SDS011;11497;52.222;21.246;2023-02-22T07:05:21;5.85;;;3.22;;
22660;SDS011;11497;52.222;21.246;2023-02-22T07:07:50;6.43;;;3.30;;
22660;SDS011;11497;52.222;21.246;2023-02-22T07:10:24;5.38;;;2.90;;
22660;SDS011;11497;52.222;21.246;2023-02-22T07:12:54;4.55;;;2.85;;
22660;SDS011;11497;52.222;21.246;2023-02-22T07:15:23;5.68;;;2.80;;
22660;SDS011;11497;52.222;21.246;2023-02-22T07:17:53;4.30;;;3.17;;
22660;SDS011;11497;52.222;21.246;2023-02-22T07:20:22;5.68;;;2.90;;
22660;SDS011;11497;52.222;21.246;2023-02-22T07:22:51;4.97;;;2.70;;
22660;SDS011;11497;52.222;21.246;2023-02-22T07:25:20;4.70;;;2.70;;
22660;SDS011;11497;52.222;21.246;2023-02-22T07:27:48;5.57;;;3.13;;
22660;SDS011;11497;52.222;21.246;2023-02-22T07:30:19;5.05;;;3.13;;
22660;SDS011;11497;52.222;21.246;2023-02-22T07:32:51;5.82;;;3.40;;
22660;SDS011;11497;52.222;21.246;2023-02-22T07:35:25;4.50;;;2.80;;
22660;SDS011;11497;52.222;21.246;2023-02-22T07:38:09;5.35;;;2.85;;
22660;SDS011;11497;52.222;21.246;2023-02-22T07:40:38;4.63;;;2.72;;
22660;SDS011;11497;52.222;21.246;2023-02-22T07:43:41;3.85;;;2.70;;
22660;SDS011;11497;52.222;21.246;2023-02-22T07:46:03;5.82;;;3.00;;
22660;SDS011;11497;52.222;21.246;2023-02-22T07:48:31;11.18;;;5.10;;
22660;SDS011;11497;52.222;21.246;2023-02-22T07:50:59;6.35;;;4.43;;
22660;SDS011;11497;52.222;21.246;2023-02-22T07:53:27;3.28;;;2.75;;
22660;SDS011;11497;52.222;21.246;2023-02-22T07:55:57;6.97;;;4.25;;
22660;SDS011;11497;52.222;21.246;2023-02-22T07:58:27;3.70;;;2.35;;
22660;SDS011;11497;52.222;21.246;2023-02-22T08:00:56;4.32;;;3.13;;
22660;SDS011;11497;52.222;21.246;2023-02-22T08:03:25;8.70;;;3.10;;
22660;SDS011;11497;52.222;21.246;2023-02-22T08:05:54;10.18;;;5.15;;
22660;SDS011;11497;52.222;21.246;2023-02-22T08:08:23;15.68;;;6.60;;
22660;SDS011;11497;52.222;21.246;2023-02-22T08:10:51;6.15;;;4.00;;
22660;SDS011;11497;52.222;21.246;2023-02-22T08:13:19;4.43;;;2.85;;
22660;SDS011;11497;52.222;21.246;2023-02-22T08:15:49;2.95;;;2.22;;
22660;SDS011;11497;52.222;21.246;2023-02-22T08:18:19;5.38;;;2.47;;
22660;SDS011;11497;52.222;21.246;2023-02-22T08:20:49;2.47;;;2.20;;
22660;SDS011;11497;52.222;21.246;2023-02-22T08:23:18;7.03;;;3.90;;
22660;SDS011;11497;52.222;21.246;2023-02-22T08:25:51;14.55;;;7.28;;
22660;SDS011;11497;52.222;21.246;2023-02-22T08:28:20;18.13;;;10.57;;
22660;SDS011;11497;52.222;21.246;2023-02-22T08:30:50;15.00;;;7.25;;
22660;SDS011;11497;52.222;21.246;2023-02-22T08:33:18;19.80;;;8.13;;
22660;SDS011;11497;52.222;21.246;2023-02-22T08:35:47;11.05;;;6.25;;
22660;SDS011;11497;52.222;21.246;2023-02-22T08:38:20;4.85;;;3.03;;
22660;SDS011;11497;52.222;21.246;2023-02-22T08:40:50;2.97;;;2.20;;
22660;SDS011;11497;52.222;21.246;2023-02-22T08:43:19;3.90;;;2.42;;
22660;SDS011;11497;52.222;21.246;2023-02-22T08:45:48;3.72;;;2.90;;
22660;SDS011;11497;52.222;21.246;2023-02-22T08:48:18;2.85;;;2.55;;
22660;SDS011;11497;52.222;21.246;2023-02-22T08:50:46;3.33;;;2.50;;
22660;SDS011;11497;52.222;21.246;2023-02-22T08:53:14;2.88;;;2.38;;
22660;SDS011;11497;52.222;21.246;2023-02-22T08:55:43;4.22;;;2.30;;
22660;SDS011;11497;52.222;21.246;2023-02-22T08:58:11;2.78;;;2.05;;
22660;SDS011;11497;52.222;21.246;2023-02-22T09:00:40;3.33;;;2.58;;
22660;SDS011;11497;52.222;21.246;2023-02-22T09:03:11;3.60;;;2.42;;
22660;SDS011;11497;52.222;21.246;2023-02-22T09:05:41;3.17;;;2.47;;
22660;SDS011;11497;52.222;21.246;2023-02-22T09:08:10;4.32;;;3.33;;
22660;SDS011;11497;52.222;21.246;2023-02-22T09:10:38;5.45;;;2.88;;
22660;SDS011;11497;52.222;21.246;2023-02-22T09:13:06;4.38;;;2.50;;
22660;SDS011;11497;52.222;21.246;2023-02-22T09:15:34;4.65;;;2.83;;
22660;SDS011;11497;52.222;21.246;2023-02-22T09:18:03;3.70;;;2.60;;
22660;SDS011;11497;52.222;21.246;2023-02-22T09:20:34;3.38;;;2.45;;
22660;SDS011;11497;52.222;21.246;2023-02-22T09:23:03;3.63;;;2.60;;
22660;SDS011;11497;52.222;21.246;2023-02-22T09:25:32;6.30;;;2.90;;
22660;SDS011;11497;52.222;21.246;2023-02-22T09:28:00;4.65;;;3.30;;
22660;SDS011;11497;52.222;21.246;2023-02-22T09:30:29;4.00;;;2.65;;
22660;SDS011;11497;52.222;21.246;2023-02-22T09:33:01;5.78;;;3.53;;
22660;SDS011;11497;52.222;21.246;2023-02-22T09:35:39;8.40;;;4.30;;
22660;SDS011;11497;52.222;21.246;2023-02-22T09:38:08;8.45;;;5.03;;
22660;SDS011;11497;52.222;21.246;2023-02-22T09:40:56;9.85;;;4.40;;
22660;SDS011;11497;52.222;21.246;2023-02-22T09:44:08;6.85;;;3.67;;
22660;SDS011;11497;52.222;21.246;2023-02-22T09:46:45;5.03;;;3.05;;
22660;SDS011;11497;52.222;21.246;2023-02-22T09:49:27;4.15;;;3.10;;
22660;SDS011;11497;52.222;21.246;2023-02-22T09:52:07;5.45;;;2.70;;
22660;SDS011;11497;52.222;21.246;2023-02-22T09:54:51;3.83;;;2.80;;
22660;SDS011;11497;52.222;21.246;2023-02-22T09:57:44;5.00;;;2.65;;
22660;SDS011;11497;52.222;21.246;2023-02-22T10:00:14;4.82;;;3.10;;
22660;SDS011;11497;52.222;21.246;2023-02-22T10:02:53;4.88;;;3.00;;
22660;SDS011;11497;52.222;21.246;2023-02-22T10:05:44;5.03;;;2.67;;
22660;SDS011;11497;52.222;21.246;2023-02-22T10:08:19;6.07;;;3.38;;
22660;SDS011;11497;52.222;21.246;2023-02-22T10:14:22;8.90;;;3.78;;
22660;SDS011;11497;52.222;21.246;2023-02-22T10:17:03;5.80;;;3.38;;
22660;SDS011;11497;52.222;21.246;2023-02-22T10:25:23;7.25;;;3.92;;
22660;SDS011;11497;52.222;21.246;2023-02-22T10:28:01;12.20;;;5.05;;
22660;SDS011;11497;52.222;21.246;2023-02-22T10:30:52;8.88;;;5.30;;
22660;SDS011;11497;52.222;21.246;2023-02-22T10:36:15;10.18;;;5.03;;
22660;SDS011;11497;52.222;21.246;2023-02-22T10:38:49;12.57;;;6.93;;
22660;SDS011;11497;52.222;21.246;2023-02-22T10:41:30;11.93;;;6.15;;
22660;SDS011;11497;52.222;21.246;2023-02-22T10:44:00;10.88;;;5.15;;
22660;SDS011;11497;52.222;21.246;2023-02-22T10:46:29;11.98;;;6.38;;
22660;SDS011;11497;52.222;21.246;2023-02-22T10:49:03;10.50;;;5.80;;
22660;SDS011;11497;52.222;21.246;2023-02-22T10:51:35;9.45;;;5.35;;
22660;SDS011;11497;52.222;21.246;2023-02-22T10:59:25;16.60;;;5.90;;
22660;SDS011;11497;52.222;21.246;2023-02-22T11:01:56;15.68;;;6.97;;
22660;SDS011;11497;52.222;21.246;2023-02-22T11:04:25;11.10;;;6.60;;
22660;SDS011;11497;52.222;21.246;2023-02-22T11:07:06;11.90;;;5.85;;
22660;SDS011;11497;52.222;21.246;2023-02-22T11:09:46;9.35;;;5.07;;
22660;SDS011;11497;52.222;21.246;2023-02-22T11:18:01;8.40;;;5.05;;
22660;SDS011;11497;52.222;21.246;2023-02-22T11:20:32;8.80;;;4.88;;
22660;SDS011;11497;52.222;21.246;2023-02-22T11:23:05;8.82;;;5.53;;
22660;SDS011;11497;52.222;21.246;2023-02-22T11:25:35;11.25;;;4.80;;
22660;SDS011;11497;52.222;21.246;2023-02-22T11:28:09;8.98;;;4.60;;
22660;SDS011;11497;52.222;21.246;2023-02-22T11:30:41;7.40;;;4.70;;
22660;SDS011;11497;52.222;21.246;2023-02-22T11:35:55;10.30;;;4.88;;
22660;SDS011;11497;52.222;21.246;2023-02-22T11:38:29;9.00;;;4.50;;
22660;SDS011;11497;52.222;21.246;2023-02-22T11:43:43;11.93;;;4.50;;
22660;SDS011;11497;52.222;21.246;2023-02-22T11:57:08;8.10;;;4.60;;
22660;SDS011;11497;52.222;21.246;2023-02-22T12:00:13;7.43;;;4.60;;
22660;SDS011;11497;52.222;21.246;2023-02-22T12:14:01;8.27;;;4.07;;
22660;SDS011;11497;52.222;21.246;2023-02-22T12:19:34;8.40;;;3.88;;
22660;SDS011;11497;52.222;21.246;2023-02-22T12:22:33;7.72;;;4.25;;
22660;SDS011;11497;52.222;21.246;2023-02-22T12:28:01;7.72;;;4.53;;
22660;SDS011;11497;52.222;21.246;2023-02-22T12:30:53;10.52;;;4.95;;
22660;SDS011;11497;52.222;21.246;2023-02-22T12:33:37;9.38;;;5.40;;
22660;SDS011;11497;52.222;21.246;2023-02-22T12:36:32;8.85;;;4.68;;
22660;SDS011;11497;52.222;21.246;2023-02-22T12:39:19;12.55;;;5.72;;
22660;SDS011;11497;52.222;21.246;2023-02-22T12:42:20;9.48;;;4.70;;
22660;SDS011;11497;52.222;21.246;2023-02-22T12:45:03;10.07;;;4.85;;
22660;SDS011;11497;52.222;21.246;2023-02-22T12:47:52;8.77;;;4.75;;
22660;SDS011;11497;52.222;21.246;2023-02-22T12:50:34;8.00;;;4.55;;
22660;SDS011;11497;52.222;21.246;2023-02-22T12:53:25;7.75;;;4.32;;
22660;SDS011;11497;52.222;21.246;2023-02-22T12:55:57;8.07;;;4.80;;
22660;SDS011;11497;52.222;21.246;2023-02-22T12:58:55;9.40;;;5.20;;
22660;SDS011;11497;52.222;21.246;2023-02-22T13:01:31;8.23;;;4.90;;
22660;SDS011;11497;52.222;21.246;2023-02-22T13:04:05;10.38;;;5.18;;
22660;SDS011;11497;52.222;21.246;2023-02-22T13:06:58;8.90;;;4.93;;
22660;SDS011;11497;52.222;21.246;2023-02-22T13:12:15;8.18;;;4.45;;
22660;SDS011;11497;52.222;21.246;2023-02-22T13:14:53;24.20;;;10.82;;
22660;SDS011;11497;52.222;21.246;2023-02-22T13:17:31;14.43;;;6.93;;
22660;SDS011;11497;52.222;21.246;2023-02-22T13:20:18;9.38;;;4.55;;
22660;SDS011;11497;52.222;21.246;2023-02-22T13:22:59;12.57;;;6.85;;
22660;SDS011;11497;52.222;21.246;2023-02-22T13:25:40;6.20;;;4.40;;
22660;SDS011;11497;52.222;21.246;2023-02-22T13:31:19;8.50;;;4.40;;
22660;SDS011;11497;52.222;21.246;2023-02-22T13:43:05;11.40;;;5.45;;
22660;SDS011;11497;52.222;21.246;2023-02-22T13:45:47;7.90;;;4.55;;
22660;SDS011;11497;52.222;21.246;2023-02-22T13:53:57;7.85;;;4.10;;
22660;SDS011;11497;52.222;21.246;2023-02-22T13:56:31;7.10;;;4.22;;
22660;SDS011;11497;52.222;21.246;2023-02-22T13:59:00;8.10;;;4.57;;
22660;SDS011;11497;52.222;21.246;2023-02-22T14:01:37;9.48;;;3.85;;
22660;SDS011;11497;52.222;21.246;2023-02-22T14:09:15;9.05;;;4.57;;
22660;SDS011;11497;52.222;21.246;2023-02-22T14:12:03;9.57;;;4.80;;
22660;SDS011;11497;52.222;21.246;2023-02-22T14:14:31;9.57;;;5.38;;
22660;SDS011;11497;52.222;21.246;2023-02-22T14:17:16;16.55;;;5.88;;
22660;SDS011;11497;52.222;21.246;2023-02-22T14:20:04;9.52;;;4.45;;
22660;SDS011;11497;52.222;21.246;2023-02-22T14:22:42;8.63;;;4.82;;
22660;SDS011;11497;52.222;21.246;2023-02-22T14:28:06;6.20;;;3.97;;
22660;SDS011;11497;52.222;21.246;2023-02-22T14:31:12;11.82;;;5.03;;
22660;SDS011;11497;52.222;21.246;2023-02-22T14:41:53;10.20;;;4.80;;
22660;SDS011;11497;52.222;21.246;2023-02-22T14:44:39;11.90;;;5.53;;
22660;SDS011;11497;52.222;21.246;2023-02-22T14:47:40;13.18;;;4.63;;
22660;SDS011;11497;52.222;21.246;2023-02-22T14:50:28;7.22;;;4.22;;
22660;SDS011;11497;52.222;21.246;2023-02-22T14:55:52;8.73;;;4.15;;
22660;SDS011;11497;52.222;21.246;2023-02-22T14:58:44;8.13;;;4.78;;
22660;SDS011;11497;52.222;21.246;2023-02-22T15:01:35;12.60;;;6.57;;
22660;SDS011;11497;52.222;21.246;2023-02-22T15:04:24;8.43;;;4.35;;
22660;SDS011;11497;52.222;21.246;2023-02-22T15:06:55;7.90;;;4.47;;
22660;SDS011;11497;52.222;21.246;2023-02-22T15:09:30;10.68;;;5.10;;
22660;SDS011;11497;52.222;21.246;2023-02-22T15:14:32;9.85;;;5.28;;
22660;SDS011;11497;52.222;21.246;2023-02-22T15:17:08;10.77;;;4.78;;
22660;SDS011;11497;52.222;21.246;2023-02-22T15:19:47;12.07;;;4.40;;
22660;SDS011;11497;52.222;21.246;2023-02-22T15:22:23;10.65;;;4.88;;
22660;SDS011;11497;52.222;21.246;2023-02-22T15:25:02;12.80;;;4.68;;
22660;SDS011;11497;52.222;21.246;2023-02-22T15:27:32;5.53;;;3.78;;
22660;SDS011;11497;52.222;21.246;2023-02-22T15:30:06;12.38;;;5.53;;
22660;SDS011;11497;52.222;21.246;2023-02-22T15:32:46;14.43;;;5.53;;
22660;SDS011;11497;52.222;21.246;2023-02-22T15:35:29;9.43;;;4.60;;
22660;SDS011;11497;52.222;21.246;2023-02-22T15:38:04;9.77;;;5.00;;
22660;SDS011;11497;52.222;21.246;2023-02-22T15:40:59;11.30;;;4.35;;
22660;SDS011;11497;52.222;21.246;2023-02-22T15:43:34;12.70;;;6.10;;
22660;SDS011;11497;52.222;21.246;2023-02-22T15:46:01;13.32;;;5.85;;
22660;SDS011;11497;52.222;21.246;2023-02-22T15:48:32;9.50;;;4.85;;
22660;SDS011;11497;52.222;21.246;2023-02-22T15:53:34;8.90;;;4.63;;
22660;SDS011;11497;52.222;21.246;2023-02-22T15:56:17;9.57;;;6.05;;
22660;SDS011;11497;52.222;21.246;2023-02-22T15:58:57;8.88;;;4.50;;
22660;SDS011;11497;52.222;21.246;2023-02-22T16:01:29;9.43;;;4.65;;
22660;SDS011;11497;52.222;21.246;2023-02-22T16:04:21;9.63;;;4.93;;
22660;SDS011;11497;52.222;21.246;2023-02-22T16:06:52;7.03;;;4.47;;
22660;SDS011;11497;52.222;21.246;2023-02-22T16:09:32;8.60;;;5.07;;
22660;SDS011;11497;52.222;21.246;2023-02-22T16:12:08;10.15;;;5.50;;
22660;SDS011;11497;52.222;21.246;2023-02-22T16:14:49;10.95;;;6.07;;
22660;SDS011;11497;52.222;21.246;2023-02-22T16:22:40;13.68;;;6.85;;
22660;SDS011;11497;52.222;21.246;2023-02-22T16:27:49;11.90;;;7.07;;
22660;SDS011;11497;52.222;21.246;2023-02-22T16:32:58;16.63;;;7.53;;
22660;SDS011;11497;52.222;21.246;2023-02-22T16:35:31;15.57;;;8.07;;
22660;SDS011;11497;52.222;21.246;2023-02-22T16:38:02;16.92;;;7.97;;
22660;SDS011;11497;52.222;21.246;2023-02-22T16:40:51;18.52;;;8.80;;
22660;SDS011;11497;52.222;21.246;2023-02-22T16:43:21;20.95;;;8.48;;
22660;SDS011;11497;52.222;21.246;2023-02-22T16:45:55;20.30;;;9.18;;
22660;SDS011;11497;52.222;21.246;2023-02-22T16:48:24;17.80;;;8.70;;
22660;SDS011;11497;52.222;21.246;2023-02-22T16:50:53;21.00;;;11.07;;
22660;SDS011;11497;52.222;21.246;2023-02-22T16:53:27;26.38;;;12.80;;
22660;SDS011;11497;52.222;21.246;2023-02-22T16:56:02;37.38;;;17.05;;
22660;SDS011;11497;52.222;21.246;2023-02-22T16:58:32;29.08;;;13.32;;
22660;SDS011;11497;52.222;21.246;2023-02-22T17:01:02;23.83;;;11.63;;
22660;SDS011;11497;52.222;21.246;2023-02-22T17:03:30;22.88;;;11.50;;
22660;SDS011;11497;52.222;21.246;2023-02-22T17:05:58;25.25;;;11.07;;
22660;SDS011;11497;52.222;21.246;2023-02-22T17:08:26;24.65;;;10.27;;
22660;SDS011;11497;52.222;21.246;2023-02-22T17:10:54;25.30;;;10.48;;
22660;SDS011;11497;52.222;21.246;2023-02-22T17:13:24;25.45;;;11.32;;
22660;SDS011;11497;52.222;21.246;2023-02-22T17:15:53;23.17;;;10.82;;
22660;SDS011;11497;52.222;21.246;2023-02-22T17:18:23;33.47;;;15.60;;
22660;SDS011;11497;52.222;21.246;2023-02-22T17:20:55;27.85;;;13.85;;
22660;SDS011;11497;52.222;21.246;2023-02-22T17:23:22;33.22;;;14.52;;
22660;SDS011;11497;52.222;21.246;2023-02-22T17:25:54;24.55;;;12.00;;
22660;SDS011;11497;52.222;21.246;2023-02-22T17:28:25;29.35;;;13.15;;
22660;SDS011;11497;52.222;21.246;2023-02-22T17:30:54;29.10;;;14.60;;
22660;SDS011;11497;52.222;21.246;2023-02-22T17:35:57;31.92;;;14.52;;
22660;SDS011;11497;52.222;21.246;2023-02-22T17:38:27;34.65;;;15.43;;
22660;SDS011;11497;52.222;21.246;2023-02-22T17:40:57;36.70;;;16.20;;